Latest Weather Observations for Cato Island
Issued at 9:13 pm EST Saturday 9 May 2026 (issued every 10 minutes, with the page automatically refreshed every 10 minutes)
| Station Details | ID: 200601 | Name: CATO ISLAND | Lat: -23.25 | Lon: 155.54 | Height: 6.3 m |
| Date/Time EST |
Temp °C |
App Temp °C |
Dew Point °C |
Rel Hum % |
Delta-T °C |
Wind | Press QNH hPa |
Press MSL hPa |
Rain since 9am mm |
|||||
|---|---|---|---|---|---|---|---|---|---|---|---|---|---|---|
| Dir | Spd km/h |
Gust km/h |
Spd kts |
Gust kts |
||||||||||
| 09/09:00pm | 23.5 | - | - | - | - | - | 41 | 48 | 22 | 26 | 1021.1 | 1021.0 | - | |
| 09/08:30pm | 23.5 | - | - | - | - | - | 41 | 50 | 22 | 27 | 1021.2 | 1021.1 | - | |
| 09/08:00pm | 23.5 | - | - | - | - | - | 43 | 50 | 23 | 27 | 1021.2 | 1021.1 | - | |
| 09/07:30pm | 23.5 | - | - | - | - | - | 44 | 54 | 24 | 29 | 1020.9 | 1020.8 | - | |
| 09/07:00pm | 23.5 | - | - | - | - | - | 43 | 50 | 23 | 27 | 1020.6 | 1020.5 | - | |
| 09/06:30pm | 23.3 | - | - | - | - | - | 43 | 52 | 23 | 28 | 1020.2 | 1020.1 | - | |
| 09/06:00pm | 23.3 | - | - | - | - | - | 43 | 48 | 23 | 26 | 1019.8 | 1019.7 | - | |
| 09/05:30pm | 23.4 | - | - | - | - | - | 43 | 50 | 23 | 27 | 1019.4 | 1019.3 | - | |
| 09/05:00pm | 23.4 | - | - | - | - | - | 39 | 46 | 21 | 25 | 1019.2 | 1019.1 | - | |
| 09/04:30pm | 23.3 | - | - | - | - | - | 41 | 48 | 22 | 26 | 1019.1 | 1019.0 | - | |
| 09/04:00pm | 23.4 | - | - | - | - | - | 43 | 48 | 23 | 26 | 1018.7 | 1018.6 | - | |
| 09/03:30pm | 23.3 | - | - | - | - | - | 39 | 46 | 21 | 25 | 1018.4 | 1018.3 | - | |
| 09/03:00pm | 23.0 | - | - | - | - | - | 37 | 43 | 20 | 23 | 1018.2 | 1018.1 | - | |
| 09/02:30pm | 23.4 | - | - | - | - | - | 37 | 43 | 20 | 23 | 1018.2 | 1018.1 | - | |
| 09/02:00pm | 23.1 | - | - | - | - | - | 37 | 46 | 20 | 25 | 1018.0 | 1017.9 | - | |
| 09/01:30pm | 23.3 | - | - | - | - | - | 39 | 46 | 21 | 25 | 1017.9 | 1017.8 | - | |
| 09/01:00pm | 23.3 | - | - | - | - | - | 39 | 44 | 21 | 24 | 1017.9 | 1017.8 | - | |
| 09/12:30pm | 23.3 | - | - | - | - | - | 35 | 46 | 19 | 25 | 1018.2 | 1018.1 | - | |
| 09/12:00pm | 23.2 | - | - | - | - | - | 35 | 41 | 19 | 22 | 1018.4 | 1018.3 | - | |
| 09/11:30am | 23.2 | - | - | - | - | - | 33 | 43 | 18 | 23 | 1018.7 | 1018.6 | - | |
| 09/11:00am | 23.0 | - | - | - | - | - | 35 | 43 | 19 | 23 | 1019.1 | 1019.0 | - | |
| 09/10:30am | 23.1 | - | - | - | - | - | 37 | 46 | 20 | 25 | 1019.3 | 1019.2 | - | |
| 09/10:00am | 23.4 | - | - | - | - | - | 39 | 46 | 21 | 25 | 1019.6 | 1019.5 | - | |
| 09/09:30am | 22.8 | - | - | - | - | - | 37 | 44 | 20 | 24 | 1020.0 | 1019.9 | - | |
| 09/09:00am | 23.0 | - | - | - | - | - | 39 | 46 | 21 | 25 | 1019.8 | 1019.7 | - | |
| 09/08:30am | 23.1 | - | - | - | - | - | 35 | 44 | 19 | 24 | 1019.7 | 1019.6 | - | |
| 09/08:00am | 23.2 | - | - | - | - | - | 37 | 44 | 20 | 24 | 1019.6 | 1019.5 | - | |
| 09/07:30am | 23.0 | - | - | - | - | - | 37 | 44 | 20 | 24 | 1019.2 | 1019.1 | - | |
| 09/07:00am | 22.6 | - | - | - | - | - | 41 | 46 | 22 | 25 | 1018.8 | 1018.7 | - | |
| 09/06:30am | 22.9 | - | - | - | - | - | 37 | 50 | 20 | 27 | 1018.7 | 1018.6 | - | |
| 09/06:00am | 22.9 | - | - | - | - | - | 30 | 39 | 16 | 21 | 1018.3 | 1018.2 | - | |
| 09/05:30am | 22.6 | - | - | - | - | - | 32 | 37 | 17 | 20 | 1017.8 | 1017.7 | - | |
| 09/05:00am | 22.8 | - | - | - | - | - | 33 | 41 | 18 | 22 | 1017.6 | 1017.5 | - | |
| 09/04:30am | 22.7 | - | - | - | - | - | 32 | 39 | 17 | 21 | 1017.2 | 1017.1 | - | |
| 09/04:00am | 23.0 | - | - | - | - | - | 33 | 41 | 18 | 22 | 1016.9 | 1016.8 | - | |
| 09/03:30am | 22.9 | - | - | - | - | - | 35 | 39 | 19 | 21 | 1016.9 | 1016.8 | - | |
| 09/03:00am | 23.0 | - | - | - | - | - | 35 | 44 | 19 | 24 | 1016.8 | 1016.7 | - | |
| 09/02:30am | 23.4 | - | - | - | - | - | 33 | 39 | 18 | 21 | 1016.8 | 1016.7 | - | |
| 09/02:00am | 22.9 | - | - | - | - | - | 30 | 35 | 16 | 19 | 1016.9 | 1016.8 | - | |
| 09/01:30am | 23.0 | - | - | - | - | - | 32 | 35 | 17 | 19 | 1017.0 | 1016.9 | - | |
| 09/01:00am | 23.7 | - | - | - | - | - | 32 | 35 | 17 | 19 | 1017.2 | 1017.1 | - | |
| 09/12:30am | 23.5 | - | - | - | - | - | 32 | 35 | 17 | 19 | 1017.2 | 1017.1 | - | |
| 09/12:00am | 23.3 | - | - | - | - | - | 32 | 37 | 17 | 20 | 1017.3 | 1017.2 | - | |
| Date/Time EST |
Temp °C |
App Temp °C |
Dew Point °C |
Rel Hum % |
Delta-T °C |
Wind | Press QNH hPa |
Press MSL hPa |
Rain since 9am mm |
|||||
|---|---|---|---|---|---|---|---|---|---|---|---|---|---|---|
| Dir | Spd km/h |
Gust km/h |
Spd kts |
Gust kts |
||||||||||
| 08/11:30pm | 23.3 | - | - | - | - | - | 32 | 39 | 17 | 21 | 1017.6 | 1017.5 | - | |
| 08/11:00pm | 23.5 | - | - | - | - | - | 32 | 35 | 17 | 19 | 1017.6 | 1017.5 | - | |
| 08/10:30pm | 23.5 | - | - | - | - | - | 32 | 39 | 17 | 21 | 1017.8 | 1017.7 | - | |
| 08/10:00pm | 23.6 | - | - | - | - | - | 30 | 35 | 16 | 19 | 1017.9 | 1017.8 | - | |
| 08/09:30pm | 23.5 | - | - | - | - | - | 30 | 37 | 16 | 20 | 1017.9 | 1017.8 | - | |
| 08/09:00pm | 23.9 | - | - | - | - | - | 32 | 35 | 17 | 19 | 1017.7 | 1017.6 | - | |
| 08/08:30pm | 23.6 | - | - | - | - | - | 32 | 37 | 17 | 20 | 1017.7 | 1017.6 | - | |
| 08/08:00pm | 23.7 | - | - | - | - | - | 32 | 37 | 17 | 20 | 1017.6 | 1017.5 | - | |
| 08/07:30pm | 23.9 | - | - | - | - | - | 32 | 35 | 17 | 19 | 1017.4 | 1017.3 | - | |
| 08/07:00pm | 23.6 | - | - | - | - | - | 33 | 39 | 18 | 21 | 1017.0 | 1016.9 | - | |
| 08/06:30pm | 24.0 | - | - | - | - | - | 33 | 39 | 18 | 21 | 1016.5 | 1016.4 | - | |
| 08/06:00pm | 23.9 | - | - | - | - | - | 35 | 39 | 19 | 21 | 1015.9 | 1015.8 | - | |
| 08/05:30pm | 24.2 | - | - | - | - | - | 35 | 41 | 19 | 22 | 1015.7 | 1015.6 | - | |
| 08/05:00pm | 24.1 | - | - | - | - | - | 35 | 41 | 19 | 22 | 1015.7 | 1015.6 | - | |
| 08/04:30pm | 24.1 | - | - | - | - | - | 35 | 39 | 19 | 21 | 1015.4 | 1015.3 | - | |
| 08/04:00pm | 24.1 | - | - | - | - | - | 35 | 41 | 19 | 22 | 1015.0 | 1014.9 | - | |
| 08/03:30pm | 24.6 | - | - | - | - | - | 33 | 39 | 18 | 21 | 1014.7 | 1014.6 | - | |
| 08/03:00pm | 24.4 | - | - | - | - | - | 32 | 35 | 17 | 19 | 1014.6 | 1014.5 | - | |
| 08/02:30pm | 24.5 | - | - | - | - | - | 32 | 35 | 17 | 19 | 1014.4 | 1014.3 | - | |
| 08/02:00pm | 24.2 | - | - | - | - | - | 32 | 37 | 17 | 20 | 1014.6 | 1014.5 | - | |
| 08/01:30pm | 24.2 | - | - | - | - | - | 33 | 37 | 18 | 20 | 1014.9 | 1014.8 | - | |
| 08/01:00pm | 24.3 | - | - | - | - | - | 33 | 41 | 18 | 22 | 1015.1 | 1015.0 | - | |
| 08/12:30pm | 24.6 | - | - | - | - | - | 33 | 39 | 18 | 21 | 1015.4 | 1015.3 | - | |
| 08/12:00pm | 24.6 | - | - | - | - | - | 33 | 37 | 18 | 20 | 1015.6 | 1015.5 | - | |
| 08/11:30am | 24.8 | - | - | - | - | - | 33 | 39 | 18 | 21 | 1015.7 | 1015.6 | - | |
| 08/11:00am | 24.6 | - | - | - | - | - | 35 | 43 | 19 | 23 | 1016.1 | 1016.0 | - | |
| 08/10:30am | 24.6 | - | - | - | - | - | 35 | 43 | 19 | 23 | 1016.4 | 1016.3 | - | |
| 08/10:00am | 25.2 | - | - | - | - | - | 37 | 43 | 20 | 23 | 1016.5 | 1016.4 | - | |
| 08/09:30am | 25.0 | - | - | - | - | - | 37 | 43 | 20 | 23 | 1016.5 | 1016.4 | - | |
| 08/09:00am | 24.8 | - | - | - | - | - | 35 | 41 | 19 | 22 | 1016.5 | 1016.4 | - | |
| 08/08:30am | 24.9 | - | - | - | - | - | 35 | 41 | 19 | 22 | 1016.3 | 1016.2 | - | |
| 08/08:00am | 24.6 | - | - | - | - | - | 30 | 33 | 16 | 18 | 1016.2 | 1016.1 | - | |
| 08/07:30am | 24.7 | - | - | - | - | - | 33 | 39 | 18 | 21 | 1016.0 | 1015.9 | - | |
| 08/07:00am | 24.6 | - | - | - | - | - | 30 | 32 | 16 | 17 | 1015.8 | 1015.7 | - | |
| 08/06:30am | 24.2 | - | - | - | - | - | 26 | 32 | 14 | 17 | 1015.6 | 1015.5 | - | |
| 08/06:00am | 24.4 | - | - | - | - | - | 26 | 28 | 14 | 15 | 1015.2 | 1015.1 | - | |
| 08/05:30am | 23.9 | - | - | - | - | - | 24 | 28 | 13 | 15 | 1015.0 | 1014.9 | - | |
| 08/05:00am | 24.4 | - | - | - | - | - | 24 | 28 | 13 | 15 | 1014.7 | 1014.6 | - | |
| 08/04:30am | 24.1 | - | - | - | - | - | 20 | 24 | 11 | 13 | 1014.5 | 1014.4 | - | |
| 08/04:00am | 24.0 | - | - | - | - | - | 20 | 24 | 11 | 13 | 1014.5 | 1014.4 | - | |
| 08/03:30am | 24.1 | - | - | - | - | - | 19 | 20 | 10 | 11 | 1014.4 | 1014.3 | - | |
| 08/03:00am | 24.2 | - | - | - | - | - | 20 | 24 | 11 | 13 | 1014.4 | 1014.3 | - | |
| 08/02:30am | 24.2 | - | - | - | - | - | 19 | 22 | 10 | 12 | 1014.4 | 1014.3 | - | |
| 08/02:00am | 24.1 | - | - | - | - | - | 15 | 17 | 8 | 9 | 1014.4 | 1014.3 | - | |
| 08/01:30am | 24.2 | - | - | - | - | - | 11 | 13 | 6 | 7 | 1014.4 | 1014.3 | - | |
| 08/01:00am | 24.2 | - | - | - | - | - | 13 | 15 | 7 | 8 | 1014.5 | 1014.4 | - | |
| 08/12:30am | 24.4 | - | - | - | - | - | 17 | 20 | 9 | 11 | 1014.7 | 1014.6 | - | |
| 08/12:00am | 24.3 | - | - | - | - | - | 15 | 17 | 8 | 9 | 1014.8 | 1014.7 | - | |
| Date/Time EST |
Temp °C |
App Temp °C |
Dew Point °C |
Rel Hum % |
Delta-T °C |
Wind | Press QNH hPa |
Press MSL hPa |
Rain since 9am mm |
|||||
|---|---|---|---|---|---|---|---|---|---|---|---|---|---|---|
| Dir | Spd km/h |
Gust km/h |
Spd kts |
Gust kts |
||||||||||
| 07/11:30pm | 24.2 | - | - | - | - | - | 11 | 13 | 6 | 7 | 1014.9 | 1014.8 | - | |
| 07/11:00pm | 24.1 | - | - | - | - | - | 9 | 13 | 5 | 7 | 1015.2 | 1015.1 | - | |
| 07/10:30pm | 24.1 | - | - | - | - | - | 11 | 13 | 6 | 7 | 1015.3 | 1015.2 | - | |
| 07/10:00pm | 24.1 | - | - | - | - | - | 13 | 15 | 7 | 8 | 1015.5 | 1015.4 | - | |
| 07/09:30pm | 24.1 | - | - | - | - | - | 19 | 20 | 10 | 11 | 1015.6 | 1015.5 | - | |
| 07/09:00pm | 23.8 | - | - | - | - | - | 17 | 19 | 9 | 10 | 1015.7 | 1015.6 | - | |
| 07/08:30pm | 23.7 | - | - | - | - | - | 17 | 17 | 9 | 9 | 1015.7 | 1015.6 | - | |
| 07/08:00pm | 23.5 | - | - | - | - | - | 19 | 20 | 10 | 11 | 1015.5 | 1015.4 | - | |
| 07/05:00pm | 25.1 | - | - | - | - | - | 9 | 11 | 5 | 6 | 1013.4 | 1013.3 | - | |
| 07/04:30pm | 25.4 | - | - | - | - | - | 9 | 11 | 5 | 6 | 1013.1 | 1013.0 | - | |
| 07/04:00pm | 25.3 | - | - | - | - | - | 11 | 13 | 6 | 7 | 1012.9 | 1012.8 | - | |
| 07/03:30pm | 25.6 | - | - | - | - | - | 7 | 9 | 4 | 5 | 1012.8 | 1012.7 | - | |
| 07/03:00pm | 25.8 | - | - | - | - | - | 9 | 13 | 5 | 7 | 1012.7 | 1012.6 | - | |
| 07/02:30pm | 26.1 | - | - | - | - | - | 9 | 11 | 5 | 6 | 1012.7 | 1012.6 | - | |
| 07/02:00pm | 26.2 | - | - | - | - | - | 13 | 15 | 7 | 8 | 1012.8 | 1012.7 | - | |
| 07/01:30pm | 26.1 | - | - | - | - | - | 17 | 19 | 9 | 10 | 1012.9 | 1012.8 | - | |
| 07/01:00pm | 26.7 | - | - | - | - | - | 15 | 17 | 8 | 9 | 1013.0 | 1012.9 | - | |
| 07/12:30pm | 26.8 | - | - | - | - | - | 13 | 17 | 7 | 9 | 1013.4 | 1013.3 | - | |
| 07/12:00pm | 27.0 | - | - | - | - | - | 13 | 17 | 7 | 9 | 1013.7 | 1013.6 | - | |
| 07/11:30am | 26.9 | - | - | - | - | - | 15 | 19 | 8 | 10 | 1014.1 | 1014.0 | - | |
| 07/11:00am | 27.1 | - | - | - | - | - | 17 | 20 | 9 | 11 | 1014.5 | 1014.4 | - | |
| 07/10:30am | 26.7 | - | - | - | - | - | 15 | 19 | 8 | 10 | 1015.0 | 1014.9 | - | |
| 07/10:00am | 26.9 | - | - | - | - | - | 15 | 19 | 8 | 10 | 1015.4 | 1015.3 | - | |
| 07/09:30am | 25.8 | - | - | - | - | - | 20 | 24 | 11 | 13 | 1015.4 | 1015.3 | - | |
| 07/09:00am | 25.8 | - | - | - | - | - | 20 | 24 | 11 | 13 | 1015.4 | 1015.3 | - | |
| 07/08:30am | 25.6 | - | - | - | - | - | 20 | 22 | 11 | 12 | 1015.3 | 1015.2 | - | |
| 07/08:00am | 25.1 | - | - | - | - | - | 22 | 24 | 12 | 13 | 1015.2 | 1015.1 | - | |
| 07/07:30am | 25.2 | - | - | - | - | - | 20 | 24 | 11 | 13 | 1015.0 | 1014.9 | - | |
| 07/06:00am | 24.1 | - | - | - | - | - | 19 | 20 | 10 | 11 | 1014.2 | 1014.1 | - | |
| 07/05:30am | 24.4 | - | - | - | - | - | 20 | 22 | 11 | 12 | 1013.9 | 1013.8 | - | |
| 07/05:00am | 24.3 | - | - | - | - | - | 22 | 26 | 12 | 14 | 1013.6 | 1013.5 | - | |
| 07/04:30am | 24.4 | - | - | - | - | - | 22 | 24 | 12 | 13 | 1013.5 | 1013.4 | - | |
| 07/04:00am | 24.7 | - | - | - | - | - | 22 | 26 | 12 | 14 | 1013.5 | 1013.4 | - | |
| 07/03:30am | 24.4 | - | - | - | - | - | 24 | 28 | 13 | 15 | 1013.5 | 1013.4 | - | |
| 07/03:00am | 24.5 | - | - | - | - | - | 20 | 22 | 11 | 12 | 1013.8 | 1013.7 | - | |
| 07/02:30am | 25.0 | - | - | - | - | - | 22 | 26 | 12 | 14 | 1013.9 | 1013.8 | - | |
| 07/02:00am | 24.7 | - | - | - | - | - | 20 | 26 | 11 | 14 | 1014.0 | 1013.9 | - | |
| 07/01:30am | 24.8 | - | - | - | - | - | 22 | 26 | 12 | 14 | 1014.2 | 1014.1 | - | |
| 07/01:00am | 24.8 | - | - | - | - | - | 24 | 28 | 13 | 15 | 1014.3 | 1014.2 | - | |
| 07/12:30am | 24.5 | - | - | - | - | - | 17 | 19 | 9 | 10 | 1014.5 | 1014.4 | - | |
| 07/12:00am | 24.2 | - | - | - | - | - | 19 | 20 | 10 | 11 | 1014.7 | 1014.6 | - | |
| Date/Time EST |
Temp °C |
App Temp °C |
Dew Point °C |
Rel Hum % |
Delta-T °C |
Wind | Press QNH hPa |
Press MSL hPa |
Rain since 9am mm |
||||
|---|---|---|---|---|---|---|---|---|---|---|---|---|---|
| Dir | Spd km/h |
Gust km/h |
Spd kts |
Gust kts |
|||||||||
| 06/11:30pm | 24.2 | - | - | - | - | - | 26 | 28 | 14 | 15 | 1014.7 | 1014.6 | - |
| 06/11:00pm | 23.8 | - | - | - | - | - | 20 | 26 | 11 | 14 | 1015.1 | 1015.0 | - |
| 06/10:30pm | 22.7 | - | - | - | - | - | 19 | 24 | 10 | 13 | 1015.4 | 1015.3 | - |
| 06/10:00pm | 23.0 | - | - | - | - | - | 15 | 17 | 8 | 9 | 1015.4 | 1015.3 | - |
| 06/09:30pm | 23.3 | - | - | - | - | - | 22 | 30 | 12 | 16 | 1015.5 | 1015.4 | - |
Other formats
Comma delimited format used in spreadsheet applications
http://www.bom.gov.au/fwo/IDQ60801/IDQ60801.94394.axf
JavaScript Object Notation format (JSON) in row-major order
http://www.bom.gov.au/fwo/IDQ60801/IDQ60801.94394.json
Data quality
Most of these data are generated automatically and are frequently updated. Quality checks on data are not normally performed. It is possible for incorrect values to appear. Refer to information at About Latest Weather Observations and please check the disclaimer before using these data.
